Time;durP1;ratioP1;P1;durP2;ratioP2;P2;SDS_P1;SDS_P2;PMS_P1;PMS_P2;Temp;Humidity;BMP_temperature;BMP_pressure;BME280_temperature;BME280_humidity;BME280_pressure;Samples;Min_cycle;Max_cycle;Signal;HPM_P1;HPM_P2
2020/11/30 07:44:57;;;;;;;;;45.25;36.75;;;;;18.81;47.33;102004.91;3729649;38;25436;-57
2020/11/30 07:47:29;;;;;;;;;50.50;37.50;;;;;19.03;51.43;101996.56;3728946;37;20924;-56
2020/11/30 07:49:56;;;;;;;;;46.75;37.50;;;;;19.20;45.96;102002.56;3728733;37;20874;-57
2020/11/30 07:52:27;;;;;;;;;39.25;34.00;;;;;19.36;47.51;102004.91;3728589;37;20744;-59
2020/11/30 07:55:05;;;;;;;;;40.50;34.00;;;;;19.65;49.16;102003.75;3728579;37;20832;-55
2020/11/30 07:57:31;;;;;;;;;36.25;30.50;;;;;19.80;51.31;101994.25;3728379;37;20771;-58
2020/11/30 08:00:18;;;;;;;;;34.75;30.50;;;;;19.97;51.83;102000.19;3728371;38;20761;-56
2020/11/30 08:02:53;;;;;;;;;37.75;31.00;;;;;20.12;52.67;102002.75;3728308;37;20738;-57
2020/11/30 08:05:32;;;;;;;;;41.75;32.50;;;;;20.25;53.47;102016.47;3728471;37;20755;-58
2020/11/30 08:08:14;;;;;;;;;27.25;22.00;;;;;20.50;54.55;102013.94;3562928;38;73008;-59
2020/11/30 08:10:42;;;;;;;;;40.50;32.50;;;;;20.68;55.06;102013.28;3728096;37;20731;-58
2020/11/30 08:13:15;;;;;;;;;39.25;31.75;;;;;20.81;55.36;102015.97;3728224;37;20714;-55
2020/11/30 08:15:44;;;;;;;;;35.50;30.25;;;;;20.91;55.29;102010.84;3728323;37;20717;-57
2020/11/30 08:18:13;;;;;;;;;39.25;33.00;;;;;20.98;55.54;102016.34;3728307;38;20760;-57
2020/11/30 08:20:42;;;;;;;;;33.25;30.50;;;;;20.93;55.48;102016.16;3728556;37;20738;-58
2020/11/30 08:23:31;;;;;;;;;38.50;30.50;;;;;20.86;55.94;102015.31;3727891;38;20716;-58
2020/11/30 08:26:10;;;;;;;;;41.75;33.00;;;;;20.83;56.28;102024.84;3728037;37;20737;-58
2020/11/30 08:28:49;;;;;;;;;39.00;32.00;;;;;20.81;55.88;102015.97;3727882;37;20695;-58
2020/11/30 08:31:25;;;;;;;;;31.75;28.25;;;;;20.81;55.50;102016.81;3727967;37;20727;-57
2020/11/30 08:33:53;;;;;;;;;33.25;30.25;;;;;20.83;55.42;102022.09;3728465;37;20725;-59
2020/11/30 08:36:28;;;;;;;;;33.50;29.25;;;;;20.85;55.40;102024.62;3728236;38;20706;-61
2020/11/30 08:38:56;;;;;;;;;40.75;29.75;;;;;20.85;55.50;102022.72;3728114;38;20687;-62
2020/11/30 08:41:25;;;;;;;;;32.25;28.75;;;;;20.88;55.31;102024.22;3727992;38;20713;-57
2020/11/30 08:43:56;;;;;;;;;34.00;28.75;;;;;20.89;55.59;102020.37;3728172;38;21279;-59
2020/11/30 08:46:25;;;;;;;;;36.00;27.25;;;;;20.91;55.46;102007.25;3727979;37;21266;-58
2020/11/30 08:48:52;;;;;;;;;28.00;26.75;;;;;20.94;55.42;102009.59;3728123;37;21292;-59
2020/11/30 08:51:39;;;;;;;;;26.00;24.50;;;;;20.95;55.52;102008.53;3728399;38;21201;-57
2020/11/30 08:54:08;;;;;;;;;27.50;25.25;;;;;20.96;55.29;102012.97;3728081;38;21254;-57
2020/11/30 08:56:34;;;;;;;;;31.00;24.25;;;;;20.97;55.34;102012.75;3727640;38;21262;-55
2020/11/30 08:59:04;;;;;;;;;25.25;24.50;;;;;20.97;55.75;102014.66;3728177;37;21434;-60
2020/11/30 09:01:31;;;;;;;;;30.75;25.50;;;;;20.99;55.79;102012.53;3728237;38;21240;-56
2020/11/30 09:03:58;;;;;;;;;25.25;22.25;;;;;20.98;55.47;102011.69;3728128;37;21301;-57
2020/11/30 09:06:25;;;;;;;;;25.25;22.00;;;;;20.99;55.57;102009.78;3728194;37;21429;-59
2020/11/30 09:08:52;;;;;;;;;22.50;21.50;;;;;20.99;56.10;101993.25;3728202;37;21402;-54
2020/11/30 09:11:18;;;;;;;;;29.75;25.00;;;;;20.99;55.79;102007.03;3728150;37;21420;-57
2020/11/30 09:13:45;;;;;;;;;24.25;22.00;;;;;21.00;56.47;102000.47;3662628;37;72044;-61
2020/11/30 09:16:11;;;;;;;;;30.25;26.00;;;;;21.04;56.62;102005.31;3728232;38;21417;-58
2020/11/30 09:18:39;;;;;;;;;22.75;20.75;;;;;21.07;56.81;102006.78;3728922;37;21426;-56
2020/11/30 10:15:38;;;;;;;;;52.75;42.00;;;;;3.72;70.79;102007.25;3729071;38;22019;-65
2020/11/30 10:18:04;;;;;;;;;53.25;39.50;;;;;3.73;71.53;102018.81;3481015;38;228636;-64
2020/11/30 10:20:31;;;;;;;;;47.75;38.75;;;;;3.44;71.85;102010.94;3728454;37;20961;-64
2020/11/30 10:22:57;;;;;;;;;55.00;41.50;;;;;3.34;72.54;102012.50;3728750;37;20952;-64
2020/11/30 10:25:24;;;;;;;;;60.00;43.00;;;;;3.29;73.11;102011.94;3728509;37;20942;-62
2020/11/30 10:27:50;;;;;;;;;56.75;44.75;;;;;3.22;73.42;102015.97;3707407;38;205444;-63
2020/11/30 10:30:18;;;;;;;;;57.00;44.50;;;;;3.24;73.61;102022.94;3726617;37;71944;-63
2020/11/30 10:32:46;;;;;;;;;51.50;42.25;;;;;3.26;73.69;102017.50;3728687;38;21075;-63
2020/11/30 10:35:16;;;;;;;;;55.25;40.25;;;;;3.07;73.74;102012.50;3728375;38;21067;-63
2020/11/30 10:37:46;;;;;;;;;50.75;40.50;;;;;2.96;74.15;102012.34;3728327;38;21056;-63
2020/11/30 10:40:14;;;;;;;;;45.25;38.50;;;;;2.95;74.78;102005.28;3728401;37;21053;-63
2020/11/30 10:42:45;;;;;;;;;56.00;42.00;;;;;3.15;74.58;102006.63;3727927;37;21075;-64
2020/11/30 10:45:13;;;;;;;;;54.50;43.00;;;;;3.23;74.71;102007.00;3728282;37;21049;-64
2020/11/30 10:47:43;;;;;;;;;52.25;40.50;;;;;3.24;74.17;102011.38;3728409;37;21062;-62
2020/11/30 10:50:10;;;;;;;;;50.25;38.75;;;;;3.19;74.40;102014.34;3728410;37;21035;-62
2020/11/30 10:52:37;;;;;;;;;40.75;35.75;;;;;3.26;74.45;102010.31;3728252;37;21026;-63
2020/11/30 10:55:04;;;;;;;;;55.25;46.00;;;;;3.22;74.48;101999.94;3728373;37;21027;-62
2020/11/30 10:57:32;;;;;;;;;46.00;39.25;;;;;3.19;74.50;102010.81;3727494;37;21053;-63
2020/11/30 11:00:07;;;;;;;;;57.00;44.50;;;;;3.18;74.18;102012.66;3727826;37;21037;-62
2020/11/30 11:02:36;;;;;;;;;51.50;42.25;;;;;3.18;73.84;102001.94;3727991;37;21026;-63
2020/11/30 11:05:05;;;;;;;;;55.25;40.25;;;;;3.10;73.95;101982.03;3727866;37;21033;-63
2020/11/30 11:07:31;;;;;;;;;55.00;41.50;;;;;3.05;73.92;102001.06;3711655;38;67375;-62
2020/11/30 11:09:58;;;;;;;;;53.25;40.00;;;;;3.06;73.92;101993.88;3728056;38;21017;-67
2020/11/30 11:12:26;;;;;;;;;42.25;39.25;;;;;3.14;73.70;101991.53;3728419;37;21031;-63
2020/11/30 11:14:55;;;;;;;;;51.75;42.00;;;;;3.04;73.71;101994.00;3727910;37;21005;-60
2020/11/30 11:17:22;;;;;;;;;54.00;42.00;;;;;2.85;73.64;101983.63;3727692;37;20967;-62
2020/11/30 11:19:49;;;;;;;;;44.25;38.00;;;;;2.81;74.57;101987.44;3727705;37;21017;-62
2020/11/30 11:22:18;;;;;;;;;45.00;37.50;;;;;3.02;74.23;102001.25;3727293;37;21016;-62
2020/11/30 11:24:46;;;;;;;;;50.75;41.50;;;;;3.07;74.70;102008.97;3726967;37;21015;-63
2020/11/30 11:27:15;;;;;;;;;49.50;40.25;;;;;3.12;74.67;102015.72;3727650;37;21017;-61
2020/11/30 11:29:43;;;;;;;;;34.25;30.00;;;;;3.10;74.35;102012.31;3727272;38;21015;-64
2020/11/30 11:32:12;;;;;;;;;53.00;39.00;;;;;3.10;74.63;102000.75;3727832;38;20959;-62
2020/11/30 11:37:44;;;;;;;;;44.00;36.25;;;;;3.19;73.92;102018.84;3727917;38;20971;-63
2020/11/30 11:40:24;;;;;;;;;53.00;43.00;;;;;3.21;74.04;102012.44;3728136;38;20984;-63
2020/11/30 11:42:51;;;;;;;;;60.00;43.25;;;;;3.18;73.98;102018.00;3727759;37;20997;-63
2020/11/30 11:45:23;;;;;;;;;51.75;40.00;;;;;3.20;73.80;102020.56;3728587;37;20994;-64
2020/11/30 11:47:56;;;;;;;;;58.50;45.50;;;;;3.26;73.68;102020.16;3728417;38;20983;-61
2020/11/30 11:50:28;;;;;;;;;60.25;45.00;;;;;3.32;73.79;102017.94;3728330;37;20958;-63
2020/11/30 11:52:57;;;;;;;;;53.25;41.00;;;;;3.33;73.72;102010.78;3727220;38;20976;-61
2020/11/30 11:55:24;;;;;;;;;59.75;42.50;;;;;3.28;73.78;102008.41;3728309;38;20961;-60
2020/11/30 11:57:50;;;;;;;;;54.50;42.00;;;;;3.29;73.76;102004.78;3727563;37;20896;-61
2020/11/30 12:00:26;;;;;;;;;61.75;44.75;;;;;3.34;74.09;102015.19;3726628;38;20977;-62
2020/11/30 12:02:53;;;;;;;;;50.75;42.25;;;;;3.32;74.14;102017.09;3727403;37;20971;-62
2020/11/30 12:05:21;;;;;;;;;47.75;39.50;;;;;3.39;73.85;102010.38;3728569;38;20946;-62
2020/11/30 12:07:52;;;;;;;;;61.00;46.50;;;;;3.38;73.80;102011.34;3728489;37;20968;-63
2020/11/30 12:10:19;;;;;;;;;68.50;49.25;;;;;3.44;73.65;102016.28;3728045;38;20958;-60
2020/11/30 12:12:48;;;;;;;;;57.75;43.75;;;;;3.47;73.37;102016.09;3727893;38;20982;-62
2020/11/30 12:15:14;;;;;;;;;60.50;46.00;;;;;3.42;72.60;101999.47;3728098;37;20941;-62
2020/11/30 12:17:42;;;;;;;;;61.75;46.75;;;;;3.49;72.67;102013.31;3732225;37;20940;-62
2020/11/30 12:20:09;;;;;;;;;47.25;39.50;;;;;3.48;72.15;102015.12;3736911;37;20948;-61
2020/11/30 12:22:36;;;;;;;;;46.50;37.75;;;;;3.43;71.90;102019.91;3729074;38;20855;-64
2020/11/30 12:25:06;;;;;;;;;44.75;35.25;;;;;3.40;71.62;102016.59;3724416;38;65506;-62
2020/11/30 12:27:33;;;;;;;;;44.75;36.00;;;;;3.45;71.96;102007.28;3728901;38;20902;-62
2020/11/30 12:29:59;;;;;;;;;43.50;34.50;;;;;3.44;71.69;102013.59;3728404;37;20907;-61
2020/11/30 12:32:26;;;;;;;;;44.50;35.00;;;;;3.38;71.55;102013.16;3727975;38;20925;-62
2020/11/30 12:34:53;;;;;;;;;43.25;36.25;;;;;3.36;71.28;102010.56;3728316;38;20914;-63
2020/11/30 12:37:20;;;;;;;;;43.50;36.25;;;;;3.38;71.36;102019.38;3727953;37;20888;-63
2020/11/30 12:39:48;;;;;;;;;39.75;34.25;;;;;3.30;71.25;102009.16;3728913;37;20882;-62
2020/11/30 12:42:17;;;;;;;;;42.00;35.00;;;;;3.37;71.29;102008.75;3727907;37;20884;-61
2020/11/30 12:44:44;;;;;;;;;48.00;39.00;;;;;3.38;71.51;102022.03;3728397;37;20866;-61
2020/11/30 12:47:10;;;;;;;;;42.00;36.75;;;;;3.35;71.11;102022.25;3728347;37;20854;-61
2020/11/30 12:49:37;;;;;;;;;60.25;46.50;;;;;3.44;70.86;102018.09;3728265;37;20868;-61
2020/11/30 12:52:03;;;;;;;;;53.75;41.25;;;;;3.45;71.12;102015.31;3728463;37;20916;-62
2020/11/30 12:54:30;;;;;;;;;60.25;44.75;;;;;3.43;71.00;102019.06;3728394;38;20909;-60
2020/11/30 12:56:56;;;;;;;;;47.25;38.00;;;;;3.44;70.73;102018.97;3728189;37;20898;-62
2020/11/30 12:59:23;;;;;;;;;47.75;37.00;;;;;3.41;70.31;102023.66;3728288;37;20868;-62
2020/11/30 13:01:52;;;;;;;;;39.75;37.75;;;;;3.43;70.59;102019.06;3728412;38;20825;-61
2020/11/30 13:04:18;;;;;;;;;50.50;39.75;;;;;3.49;70.45;102024.88;3728471;37;20852;-61
2020/11/30 13:06:45;;;;;;;;;44.50;38.75;;;;;3.41;70.30;102007.59;3728312;38;20848;-61
2020/11/30 13:09:11;;;;;;;;;41.75;37.25;;;;;3.48;70.22;102020.47;3728404;38;20876;-63
2020/11/30 13:11:41;;;;;;;;;42.75;36.00;;;;;3.47;70.39;102021.44;3728639;37;20840;-62
2020/11/30 13:14:09;;;;;;;;;45.75;35.25;;;;;3.33;70.45;102013.47;3728490;37;20847;-62
2020/11/30 13:16:36;;;;;;;;;39.00;35.00;;;;;3.35;70.63;102021.38;3728480;37;20852;-61
2020/11/30 13:19:03;;;;;;;;;42.25;37.00;;;;;3.37;70.22;102027.50;3728315;37;20803;-63
2020/11/30 13:21:31;;;;;;;;;51.25;42.25;;;;;3.36;70.42;102029.31;3728420;37;20834;-61
2020/11/30 13:23:57;;;;;;;;;45.00;34.50;;;;;3.31;69.84;102037.63;3728133;38;20886;-62
2020/11/30 13:26:25;;;;;;;;;41.25;35.25;;;;;3.32;69.70;102041.19;3728006;37;20813;-61
2020/11/30 13:28:53;;;;;;;;;40.25;34.00;;;;;3.30;69.56;102051.13;3728689;38;20807;-61
2020/11/30 13:31:22;;;;;;;;;22.25;17.50;;;;;3.23;69.44;102053.34;3728601;38;20777;-60
2020/11/30 13:33:50;;;;;;;;;42.00;34.50;;;;;3.21;69.20;102049.91;3728466;37;20774;-60
2020/11/30 13:36:17;;;;;;;;;44.25;34.00;;;;;3.18;69.35;102043.87;3728394;37;20813;-62
2020/11/30 13:38:44;;;;;;;;;51.00;40.25;;;;;3.12;69.38;102049.66;3728614;37;20810;-60
2020/11/30 13:41:13;;;;;;;;;46.50;37.00;;;;;3.06;69.13;102050.06;3728500;38;20792;-63
2020/11/30 13:43:40;;;;;;;;;39.25;32.00;;;;;3.01;69.11;102050.34;3728341;38;20764;-63
2020/11/30 13:46:06;;;;;;;;;47.25;34.25;;;;;2.97;69.39;102048.81;3728397;37;20791;-62
2020/11/30 13:48:35;;;;;;;;;31.00;25.75;;;;;2.93;69.04;102049.97;3727784;37;20798;-61
2020/11/30 13:51:03;;;;;;;;;37.75;32.00;;;;;2.86;69.02;102048.66;3728369;37;20749;-61
2020/11/30 13:53:30;;;;;;;;;35.75;28.25;;;;;2.81;68.72;102048.09;3729055;38;20766;-62
2020/11/30 13:55:58;;;;;;;;;44.75;35.50;;;;;2.80;69.01;102060.59;3728474;38;20769;-63
2020/11/30 13:58:26;;;;;;;;;42.75;36.00;;;;;2.75;69.16;102060.03;3728526;37;20775;-63
2020/11/30 14:00:53;;;;;;;;;48.00;38.75;;;;;2.73;68.86;102069.09;3728347;38;20776;-60
2020/11/30 14:03:22;;;;;;;;;57.25;44.50;;;;;2.66;69.11;102066.78;3728460;37;20832;-62
2020/11/30 14:05:49;;;;;;;;;59.75;46.25;;;;;2.58;69.20;102062.91;3728734;38;20820;-62
2020/11/30 14:08:15;;;;;;;;;59.75;47.00;;;;;2.52;69.24;102068.63;3728528;38;20812;-62
2020/11/30 14:10:42;;;;;;;;;57.75;44.00;;;;;2.43;69.77;102069.19;3729789;37;20807;-61
2020/11/30 14:13:10;;;;;;;;;46.75;37.50;;;;;2.36;69.84;102070.53;3729696;38;20827;-61
2020/11/30 14:15:38;;;;;;;;;66.25;54.25;;;;;2.27;69.98;102062.12;3728330;37;20818;-60
2020/11/30 14:18:04;;;;;;;;;80.50;63.00;;;;;2.26;70.44;102067.56;3728214;37;20791;-61
2020/11/30 14:20:32;;;;;;;;;64.25;49.50;;;;;2.19;70.66;102067.06;3728483;38;18021;-61
2020/11/30 14:23:00;;;;;;;;;65.50;49.25;;;;;2.08;70.61;102066.84;3728243;37;20793;-62
2020/11/30 14:25:27;;;;;;;;;48.50;40.75;;;;;1.92;71.42;102071.41;3728405;38;20807;-62
2020/11/30 14:27:55;;;;;;;;;76.25;58.00;;;;;1.75;71.56;102066.19;3727878;37;20798;-62
2020/11/30 14:30:21;;;;;;;;;69.00;54.50;;;;;1.70;72.23;102084.28;3728204;38;20780;-60
2020/11/30 14:32:51;;;;;;;;;74.50;56.00;;;;;1.55;72.53;102086.91;3728258;38;20762;-61
2020/11/30 14:35:18;;;;;;;;;75.00;58.00;;;;;1.41;72.99;102080.66;3728273;38;20769;-61
2020/11/30 14:37:44;;;;;;;;;78.50;59.75;;;;;1.30;73.23;102084.78;3728270;37;20754;-61
2020/11/30 14:40:11;;;;;;;;;82.75;65.25;;;;;1.19;73.98;102084.53;3728398;37;20763;-63
2020/11/30 14:42:37;;;;;;;;;85.75;64.00;;;;;0.99;74.31;102084.78;3728357;37;18011;-61
2020/11/30 14:45:12;;;;;;;;;92.25;68.75;;;;;0.85;75.05;102090.87;3728437;37;18002;-61
2020/11/30 14:47:39;;;;;;;;;99.25;76.25;;;;;0.78;75.78;102104.63;3728580;37;17994;-62
2020/11/30 14:50:06;;;;;;;;;167.75;138.25;;;;;0.76;75.95;102103.84;3727986;37;18002;-63
2020/11/30 14:52:32;;;;;;;;;92.25;70.75;;;;;0.71;76.38;102106.75;3728952;38;17990;-62
2020/11/30 14:54:59;;;;;;;;;100.00;78.00;;;;;0.69;76.44;102100.63;3737376;37;17997;-60
2020/11/30 14:57:26;;;;;;;;;84.25;62.25;;;;;0.70;76.53;102109.50;3730027;37;17986;-60
2020/11/30 14:59:52;;;;;;;;;93.00;65.00;;;;;0.59;76.47;102092.28;3728164;37;17979;-62
2020/11/30 15:02:19;;;;;;;;;87.25;66.00;;;;;0.56;76.55;102096.91;3725735;37;20745;-62
2020/11/30 15:04:50;;;;;;;;;87.25;69.00;;;;;0.60;76.92;102107.31;3725662;38;20729;-62
2020/11/30 15:07:18;;;;;;;;;92.00;65.75;;;;;0.44;76.83;102087.78;3725331;38;17958;-62
2020/11/30 15:09:44;;;;;;;;;82.75;61.00;;;;;0.38;77.56;102098.75;3725633;37;17950;-61
2020/11/30 15:12:12;;;;;;;;;82.25;58.00;;;;;0.31;77.61;102111.53;3725689;37;20724;-62
2020/11/30 15:14:40;;;;;;;;;85.00;62.50;;;;;0.26;78.32;102118.91;3725482;38;17949;-64
2020/11/30 15:17:08;;;;;;;;;78.00;59.50;;;;;0.25;78.26;102103.88;3725545;37;17946;-61
2020/11/30 15:19:34;;;;;;;;;69.50;52.50;;;;;0.34;78.17;102110.50;3725218;38;20723;-61
2020/11/30 15:22:02;;;;;;;;;81.50;57.00;;;;;0.32;78.50;102112.41;3725524;37;20714;-62
2020/11/30 15:24:28;;;;;;;;;93.00;73.75;;;;;0.26;78.69;102113.56;3725196;37;20720;-63
2020/11/30 15:26:56;;;;;;;;;87.00;63.50;;;;;0.27;78.74;102123.28;3725618;37;17954;-61
2020/11/30 15:29:23;;;;;;;;;92.25;67.25;;;;;0.31;78.98;102124.84;3725303;37;17933;-61
2020/11/30 15:31:50;;;;;;;;;99.50;74.75;;;;;0.38;78.91;102130.72;3725495;38;17921;-62
2020/11/30 15:34:17;;;;;;;;;103.00;71.50;;;;;0.42;79.23;102136.75;3725416;38;17928;-62
2020/11/30 15:36:45;;;;;;;;;92.25;72.50;;;;;0.44;79.49;102134.87;3724292;37;17945;-61
2020/11/30 15:39:11;;;;;;;;;89.75;68.00;;;;;0.44;79.30;102132.22;3724507;38;17917;-61
2020/11/30 15:41:39;;;;;;;;;84.75;64.50;;;;;0.52;79.66;102138.81;3724958;37;17933;-62
2020/11/30 15:44:05;;;;;;;;;81.75;60.25;;;;;0.57;79.59;102130.59;3725103;37;20669;-61
2020/11/30 15:46:32;;;;;;;;;93.25;68.75;;;;;0.64;79.42;102137.31;3725435;38;18268;-62
2020/11/30 15:48:58;;;;;;;;;84.75;64.50;;;;;0.65;79.37;102134.56;3725571;38;17901;-62
2020/11/30 15:51:28;;;;;;;;;74.00;55.75;;;;;0.68;79.50;102141.56;3725131;37;20682;-63
2020/11/30 15:53:55;;;;;;;;;80.75;60.00;;;;;0.67;79.96;102139.81;3725426;37;20683;-62
2020/11/30 15:56:22;;;;;;;;;67.25;54.00;;;;;0.70;80.04;102137.00;3725277;38;20677;-62
2020/11/30 15:58:49;;;;;;;;;65.00;52.75;;;;;0.69;79.99;102134.41;3724955;37;20665;-60
2020/11/30 16:01:18;;;;;;;;;80.25;60.75;;;;;0.77;80.09;102143.72;3724901;37;20642;-63
2020/11/30 16:03:45;;;;;;;;;79.25;59.25;;;;;0.73;80.02;102138.66;3725179;38;20677;-62
2020/11/30 16:06:12;;;;;;;;;80.75;56.00;;;;;0.79;80.40;102156.97;3724881;37;20644;-62
2020/11/30 16:08:39;;;;;;;;;74.75;54.75;;;;;0.85;80.43;102156.66;3724762;37;20645;-61
2020/11/30 16:11:09;;;;;;;;;86.25;61.50;;;;;0.86;80.17;102153.03;3725027;37;20646;-63
2020/11/30 16:13:35;;;;;;;;;71.25;55.25;;;;;0.86;80.35;102148.56;3725113;38;20651;-62
2020/11/30 16:16:12;;;;;;;;;79.50;58.00;;;;;0.89;80.16;102148.41;3725143;37;20650;-61
2020/11/30 16:18:38;;;;;;;;;71.50;52.50;;;;;0.92;80.47;102152.72;3725315;38;20639;-63
2020/11/30 16:21:06;;;;;;;;;59.00;46.25;;;;;0.93;80.39;102152.63;3725404;38;20656;-62
2020/11/30 16:23:33;;;;;;;;;71.50;53.50;;;;;0.92;80.38;102148.25;3725397;37;20722;-61
2020/11/30 16:26:00;;;;;;;;;70.75;52.75;;;;;0.98;80.52;102157.72;3725453;37;20644;-64
2020/11/30 16:28:29;;;;;;;;;70.75;53.50;;;;;0.94;80.50;102157.03;3725419;37;20642;-62
2020/11/30 16:30:57;;;;;;;;;80.00;55.25;;;;;0.99;80.48;102164.78;3725247;37;20629;-62
2020/11/30 16:33:25;;;;;;;;;70.50;54.25;;;;;0.98;80.12;102168.38;3725442;37;20617;-62
2020/11/30 16:35:53;;;;;;;;;66.00;51.25;;;;;0.93;80.29;102171.28;3725456;38;20639;-63
2020/11/30 16:38:19;;;;;;;;;70.75;51.75;;;;;0.95;80.46;102172.06;3725366;38;20596;-64
2020/11/30 16:40:47;;;;;;;;;61.00;46.00;;;;;0.93;80.01;102171.28;3725471;38;20630;-62
2020/11/30 16:43:13;;;;;;;;;69.75;53.00;;;;;0.96;80.31;102163.13;3725426;37;20602;-63
2020/11/30 16:45:40;;;;;;;;;61.75;46.50;;;;;0.96;80.20;102160.47;3725439;38;20603;-62
2020/11/30 16:48:07;;;;;;;;;61.75;45.00;;;;;0.97;80.21;102162.19;3725250;37;20611;-63
2020/11/30 16:50:34;;;;;;;;;57.75;45.00;;;;;0.85;79.97;102149.50;3725083;38;20598;-62
2020/11/30 16:53:03;;;;;;;;;70.50;52.50;;;;;0.88;80.36;102164.47;3725373;38;20610;-61
2020/11/30 16:55:29;;;;;;;;;78.50;56.75;;;;;0.81;80.40;102161.28;3725380;37;20594;-63
2020/11/30 16:57:58;;;;;;;;;73.25;55.25;;;;;0.77;80.76;102146.38;3725377;38;20579;-62
2020/11/30 17:00:27;;;;;;;;;72.75;53.50;;;;;0.64;80.83;102124.87;3725520;37;20595;-61
2020/11/30 17:02:54;;;;;;;;;69.75;49.75;;;;;0.77;80.76;102162.37;3725458;38;20577;-61
2020/11/30 17:05:22;;;;;;;;;68.00;54.25;;;;;0.69;80.46;102143.28;3725536;37;20586;-63
2020/11/30 17:07:51;;;;;;;;;62.75;50.25;;;;;0.82;80.62;102165.66;3725454;37;20563;-64
2020/11/30 17:10:18;;;;;;;;;71.50;50.75;;;;;0.81;80.24;102165.75;3725448;38;20550;-62
2020/11/30 17:12:46;;;;;;;;;66.50;48.50;;;;;0.80;80.05;102164.03;3725605;37;20556;-60
2020/11/30 17:15:13;;;;;;;;;51.00;42.25;;;;;0.79;79.93;102167.62;3725442;37;20554;-64
2020/11/30 17:17:43;;;;;;;;;68.50;53.50;;;;;0.87;80.30;102165.41;3725449;37;20571;-64
2020/11/30 17:20:12;;;;;;;;;70.00;51.25;;;;;0.84;79.78;102160.25;3725092;38;20585;-63
2020/11/30 17:22:39;;;;;;;;;71.50;53.75;;;;;0.84;79.67;102163.78;3724854;38;20564;-61
2020/11/30 17:25:06;;;;;;;;;59.50;41.75;;;;;0.83;79.57;102164.72;3724900;37;20538;-63
2020/11/30 17:27:32;;;;;;;;;64.00;49.00;;;;;0.81;79.72;102166.59;3725315;38;20538;-62
2020/11/30 17:30:04;;;;;;;;;51.75;41.50;;;;;0.77;79.40;102167.72;3733367;37;20564;-61
2020/11/30 17:32:31;;;;;;;;;59.00;45.00;;;;;0.81;79.41;102169.28;3728394;38;20530;-62
2020/11/30 17:34:58;;;;;;;;;51.75;41.50;;;;;0.84;79.37;102161.12;3725248;38;20526;-61
2020/11/30 17:37:24;;;;;;;;;43.25;36.50;;;;;0.72;79.15;102155.56;3725452;38;20540;-61
2020/11/30 17:39:52;;;;;;;;;60.00;43.75;;;;;0.80;79.30;102166.69;3725258;38;20520;-59
2020/11/30 17:42:20;;;;;;;;;47.00;41.00;;;;;0.75;79.46;102177.59;3625913;38;68644;-59
2020/11/30 17:44:47;;;;;;;;;56.25;45.75;;;;;0.72;79.34;102163.56;3725621;37;20513;-59
2020/11/30 17:47:14;;;;;;;;;40.50;34.50;;;;;0.74;79.47;102180.34;3725857;38;20527;-61
2020/11/30 17:49:41;;;;;;;;;60.00;46.50;;;;;0.71;79.71;102176.03;3726348;37;20529;-60
2020/11/30 17:52:09;;;;;;;;;63.25;48.75;;;;;0.73;79.23;102182.13;3725670;37;20497;-61
2020/11/30 17:54:43;;;;;;;;;67.75;50.50;;;;;0.65;79.30;102163.03;3726002;37;20531;-60
2020/11/30 17:57:10;;;;;;;;;60.00;42.75;;;;;0.71;79.38;102178.69;3726201;38;20507;-60
2020/11/30 17:59:39;;;;;;;;;55.75;42.50;;;;;0.67;79.39;102179.78;3726386;37;20500;-60
2020/11/30 18:02:07;;;;;;;;;65.75;45.75;;;;;0.64;79.52;102170.16;3726483;38;20518;-63
2020/11/30 18:04:35;;;;;;;;;56.25;42.00;;;;;0.57;79.46;102183.88;3726616;38;20511;-62
2020/11/30 18:07:05;;;;;;;;;55.50;42.00;;;;;0.54;79.35;102186.69;3725802;38;20510;-64
2020/11/30 18:09:32;;;;;;;;;34.25;25.50;;;;;0.47;79.49;102166.69;3726672;37;20487;-64
2020/11/30 18:11:59;;;;;;;;;52.50;41.75;;;;;0.57;79.43;102179.41;3725996;37;20487;-63
2020/11/30 18:14:26;;;;;;;;;52.50;40.75;;;;;0.56;79.10;102185.69;3725294;37;20479;-63
2020/11/30 18:16:54;;;;;;;;;53.75;39.25;;;;;0.43;79.28;102167.78;3724446;38;20480;-62
2020/11/30 18:19:22;;;;;;;;;44.00;39.00;;;;;0.33;79.49;102152.25;3725296;37;20491;-61
2020/11/30 18:21:50;;;;;;;;;29.75;28.75;;;;;0.29;79.37;102153.34;3724883;38;20464;-62
2020/11/30 18:24:17;;;;;;;;;41.50;32.25;;;;;0.53;79.18;102185.84;3724830;37;20456;-61
2020/11/30 18:26:46;;;;;;;;;53.00;40.75;;;;;0.49;79.45;102194.09;3724954;37;20491;-61
2020/11/30 18:29:15;;;;;;;;;61.75;45.50;;;;;0.43;79.02;102183.75;3724877;37;20451;-61
2020/11/30 18:31:42;;;;;;;;;51.00;33.25;;;;;0.40;79.05;102189.22;3725292;37;20454;-62
2020/11/30 18:34:08;;;;;;;;;57.00;43.00;;;;;0.46;79.59;102188.94;3725744;37;20443;-61
2020/11/30 18:36:36;;;;;;;;;56.75;44.25;;;;;0.48;79.11;102189.72;3724902;38;20454;-60
2020/11/30 18:39:05;;;;;;;;;44.25;36.00;;;;;0.47;79.15;102190.66;3724825;38;20446;-61
2020/11/30 18:41:32;;;;;;;;;58.00;41.00;;;;;0.46;79.39;102186.25;3724942;37;20468;-62
2020/11/30 18:44:03;;;;;;;;;56.75;43.00;;;;;0.38;79.44;102183.97;3725155;38;20448;-62
2020/11/30 18:46:29;;;;;;;;;61.75;42.75;;;;;0.35;79.34;102183.28;3725057;38;20461;-61
2020/11/30 18:48:56;;;;;;;;;37.75;28.25;;;;;0.38;79.27;102191.97;3725726;37;20420;-61
2020/11/30 18:51:23;;;;;;;;;56.00;45.50;;;;;0.24;79.49;102181.16;3724773;37;20459;-59
2020/11/30 18:53:49;;;;;;;;;64.25;45.75;;;;;0.30;79.38;102202.16;3724959;37;20449;-62
2020/11/30 18:56:16;;;;;;;;;61.75;42.75;;;;;0.26;79.81;102203.25;3725099;38;20440;-61
2020/11/30 18:58:42;;;;;;;;;53.00;42.50;;;;;0.26;79.90;102209.44;3725137;38;20429;-62
2020/11/30 19:01:14;;;;;;;;;68.00;47.75;;;;;0.16;79.63;102208.16;3725176;38;20419;-60
2020/11/30 19:03:43;;;;;;;;;56.50;45.25;;;;;0.11;80.14;102212.84;3724533;38;21437;-61
2020/11/30 19:06:10;;;;;;;;;56.25;44.00;;;;;0.10;80.19;102212.94;3724679;37;21403;-63
2020/11/30 19:08:37;;;;;;;;;63.25;47.25;;;;;-0.01;79.95;102187.72;3725091;37;21399;-61
2020/11/30 19:11:03;;;;;;;;;54.00;40.25;;;;;0.16;80.18;102208.16;3725353;38;21417;-60
2020/11/30 19:13:30;;;;;;;;;61.25;44.75;;;;;0.11;80.01;102207.53;3725096;38;20425;-62
2020/11/30 19:15:56;;;;;;;;;43.25;37.00;;;;;0.02;80.17;102209.78;3725319;37;21406;-60
2020/11/30 19:18:23;;;;;;;;;48.50;42.75;;;;;-0.03;80.15;102213.56;3725389;38;21404;-60
2020/11/30 19:20:50;;;;;;;;;50.75;41.00;;;;;-0.14;80.17;102199.91;3725428;38;21411;-60
2020/11/30 19:23:17;;;;;;;;;51.25;40.75;;;;;-0.17;80.27;102202.72;3725519;37;21401;-59
2020/11/30 19:25:43;;;;;;;;;65.00;43.25;;;;;-0.24;80.40;102197.78;3725688;37;21379;-59
2020/11/30 19:28:18;;;;;;;;;59.75;42.75;;;;;-0.31;80.28;102191.88;3725046;38;21402;-61
2020/11/30 19:30:47;;;;;;;;;59.75;42.50;;;;;-0.45;80.32;102175.72;3725257;38;21387;-61
2020/11/30 19:33:15;;;;;;;;;60.25;41.25;;;;;-0.39;80.90;102197.56;3724901;38;21372;-62
2020/11/30 19:35:42;;;;;;;;;54.25;42.00;;;;;-0.52;80.48;102177.81;3725038;37;21381;-60
2020/11/30 19:38:12;;;;;;;;;58.00;40.50;;;;;-0.53;80.63;102183.22;3725352;37;21392;-61
2020/11/30 19:40:40;;;;;;;;;67.25;47.00;;;;;-0.58;80.82;102182.56;3727259;38;21375;-62
2020/11/30 19:43:09;;;;;;;;;50.25;41.75;;;;;-0.59;80.76;102183.50;3725891;38;21385;-63
2020/11/30 19:45:38;;;;;;;;;60.25;47.00;;;;;-0.64;81.38;102183.72;3725486;37;21363;-62
2020/11/30 19:48:07;;;;;;;;;57.25;42.00;;;;;-0.68;81.33;102184.81;3725279;37;21350;-66
2020/11/30 19:50:39;;;;;;;;;52.00;39.75;;;;;-0.77;81.49;102185.22;3726434;37;21378;-61
2020/11/30 19:53:10;;;;;;;;;61.25;46.75;;;;;-0.80;81.56;102180.06;3725715;37;21372;-63
2020/11/30 19:55:40;;;;;;;;;57.75;46.00;;;;;-0.82;81.36;102182.78;3724940;38;21370;-62
2020/11/30 19:58:06;;;;;;;;;52.50;41.50;;;;;-0.87;81.36;102183.91;3724598;38;21330;-61
2020/11/30 20:00:37;;;;;;;;;56.25;44.75;;;;;-0.90;81.59;102179.59;3725386;37;21341;-63